WMT7JF LRTR-EDFH
Flight info
| Callsign | WMT7JF |
|---|---|
| Flight time | 1h 43m |
| Altitude | 36000 |
| Route | MOPUG DCT MAVIR DCT GITAS DCT ARSIN DCT RENKA DCT PETIX Z744 LEPSA/N0367F240 Z104 OLGIL OLGIL3A |
| Aircraft | A320/M-SDE1E2E3FGIJ1J4RWXY/PB1 |
Departure
| Time | 2026-05-05 12:45 |
|---|---|
| Airport | Timișoara Traian Vuia International Airport (LRTR) |
Arrival
| Time | 2026-05-05 14:29 |
|---|---|
| Airport | Frankfurt-Hahn Airport (EDFH) |
| Time | Latitude | Longitude | Altitude | Speed | Heading |
|---|---|---|---|---|---|
| 2026-05-05 12:25 | 45.81031 | 21.32236 | 345 ft | 0 kts | 200° |
| 2026-05-05 12:39 | 45.81032 | 21.32237 | 345 ft | 1 kts | 200° |
| 2026-05-05 12:39 | 45.81047 | 21.32245 | 345 ft | 2 kts | 200° |
| 2026-05-05 12:39 | 45.81062 | 21.32253 | 345 ft | 2 kts | 200° |
| 2026-05-05 12:40 | 45.81078 | 21.32265 | 345 ft | 2 kts | 237° |
| 2026-05-05 12:40 | 45.81081 | 21.32287 | 345 ft | 1 kts | 286° |
| 2026-05-05 12:40 | 45.81076 | 21.32301 | 345 ft | 1 kts | 295° |
| 2026-05-05 12:40 | 45.81074 | 21.32306 | 346 ft | 0 kts | 289° |
| 2026-05-05 12:42 | 45.81078 | 21.32291 | 345 ft | 4 kts | 289° |
| 2026-05-05 12:42 | 45.81098 | 21.32213 | 345 ft | 9 kts | 289° |
| 2026-05-05 12:42 | 45.81123 | 21.32111 | 344 ft | 10 kts | 289° |
| 2026-05-05 12:43 | 45.81158 | 21.32003 | 344 ft | 11 kts | 294° |
| 2026-05-05 12:43 | 45.81189 | 21.31887 | 344 ft | 12 kts | 289° |
| 2026-05-05 12:43 | 45.81220 | 21.31759 | 344 ft | 13 kts | 290° |
| 2026-05-05 12:43 | 45.81251 | 21.31636 | 344 ft | 10 kts | 289° |
| 2026-05-05 12:44 | 45.81302 | 21.31576 | 345 ft | 10 kts | 9° |
| 2026-05-05 12:44 | 45.81379 | 21.31615 | 345 ft | 11 kts | 19° |
| 2026-05-05 12:44 | 45.81457 | 21.31655 | 345 ft | 12 kts | 19° |
| 2026-05-05 12:44 | 45.81495 | 21.31752 | 345 ft | 20 kts | 108° |
| 2026-05-05 12:45 | 45.81383 | 21.32192 | 345 ft | 80 kts | 110° |
| 2026-05-05 12:45 | 45.81130 | 21.33203 | 354 ft | 135 kts | 109° |
| 2026-05-05 12:45 | 45.80761 | 21.34664 | 522 ft | 167 kts | 112° |
| 2026-05-05 12:45 | 45.80371 | 21.36224 | 1072 ft | 170 kts | 112° |
| 2026-05-05 12:46 | 45.79960 | 21.37823 | 1735 ft | 171 kts | 112° |
| 2026-05-05 12:46 | 45.79533 | 21.39466 | 2200 ft | 187 kts | 113° |
| 2026-05-05 12:46 | 45.79062 | 21.41319 | 2667 ft | 205 kts | 112° |
| 2026-05-05 12:46 | 45.78560 | 21.43319 | 3075 ft | 227 kts | 111° |
| 2026-05-05 12:47 | 45.78059 | 21.45461 | 3941 ft | 229 kts | 103° |
| 2026-05-05 12:47 | 45.78182 | 21.47714 | 4820 ft | 233 kts | 67° |
| 2026-05-05 12:47 | 45.79183 | 21.49490 | 5643 ft | 238 kts | 34° |
| 2026-05-05 12:47 | 45.80757 | 21.50225 | 6424 ft | 243 kts | 359° |
| 2026-05-05 12:48 | 45.82365 | 21.49628 | 7178 ft | 245 kts | 333° |
| 2026-05-05 12:48 | 45.83938 | 21.48648 | 7929 ft | 248 kts | 349° |
| 2026-05-05 12:48 | 45.85614 | 21.48794 | 8663 ft | 247 kts | 18° |
| 2026-05-05 12:48 | 45.87250 | 21.49564 | 9413 ft | 249 kts | 20° |
| 2026-05-05 12:49 | 45.88869 | 21.50377 | 10094 ft | 252 kts | 21° |
| 2026-05-05 12:49 | 45.90527 | 21.51230 | 10794 ft | 254 kts | 21° |
| 2026-05-05 12:49 | 45.92211 | 21.52102 | 11480 ft | 256 kts | 21° |
| 2026-05-05 12:49 | 45.93883 | 21.52952 | 12133 ft | 258 kts | 17° |
| 2026-05-05 12:50 | 45.95674 | 21.53112 | 12725 ft | 263 kts | 346° |
| 2026-05-05 12:50 | 45.97299 | 21.51959 | 13314 ft | 267 kts | 317° |
| 2026-05-05 12:50 | 45.98387 | 21.49734 | 13628 ft | 279 kts | 289° |
| 2026-05-05 12:50 | 45.99038 | 21.47011 | 13940 ft | 295 kts | 287° |
| 2026-05-05 12:51 | 45.99712 | 21.44149 | 14236 ft | 311 kts | 288° |
| 2026-05-05 12:51 | 46.00433 | 21.41163 | 14599 ft | 323 kts | 288° |
| 2026-05-05 12:51 | 46.01193 | 21.38073 | 15193 ft | 328 kts | 288° |
| 2026-05-05 12:51 | 46.01957 | 21.34989 | 15839 ft | 330 kts | 289° |
| 2026-05-05 12:52 | 46.02733 | 21.31876 | 16472 ft | 332 kts | 289° |
| 2026-05-05 12:52 | 46.03506 | 21.28774 | 17076 ft | 334 kts | 289° |
| 2026-05-05 12:52 | 46.04290 | 21.25627 | 17670 ft | 337 kts | 289° |
| 2026-05-05 12:52 | 46.05083 | 21.22446 | 18262 ft | 339 kts | 289° |
| 2026-05-05 12:53 | 46.05880 | 21.19237 | 18861 ft | 341 kts | 289° |
| 2026-05-05 12:53 | 46.06675 | 21.16036 | 19450 ft | 342 kts | 289° |
| 2026-05-05 12:53 | 46.07484 | 21.12773 | 20029 ft | 344 kts | 289° |
| 2026-05-05 12:53 | 46.08281 | 21.09556 | 20564 ft | 347 kts | 289° |
| 2026-05-05 12:54 | 46.09919 | 21.02930 | 21619 ft | 352 kts | 289° |
| 2026-05-05 12:54 | 46.10743 | 20.99590 | 22131 ft | 354 kts | 289° |
| 2026-05-05 12:54 | 46.11568 | 20.96237 | 22638 ft | 356 kts | 289° |
| 2026-05-05 12:55 | 46.12405 | 20.92832 | 23132 ft | 358 kts | 289° |
| 2026-05-05 12:55 | 46.13203 | 20.89418 | 23590 ft | 361 kts | 287° |
| 2026-05-05 12:55 | 46.13859 | 20.85932 | 24043 ft | 363 kts | 284° |
| 2026-05-05 12:55 | 46.14456 | 20.82375 | 24490 ft | 366 kts | 283° |
| 2026-05-05 12:56 | 46.15055 | 20.78755 | 24937 ft | 368 kts | 283° |
| 2026-05-05 12:56 | 46.15651 | 20.75149 | 25369 ft | 370 kts | 284° |
| 2026-05-05 12:56 | 46.16304 | 20.71592 | 25790 ft | 372 kts | 287° |
| 2026-05-05 12:56 | 46.17132 | 20.68009 | 26203 ft | 374 kts | 291° |
| 2026-05-05 12:57 | 46.18067 | 20.64498 | 26605 ft | 376 kts | 291° |
| 2026-05-05 12:57 | 46.19013 | 20.61002 | 26991 ft | 378 kts | 291° |
| 2026-05-05 12:57 | 46.19976 | 20.57446 | 27387 ft | 380 kts | 291° |
| 2026-05-05 12:57 | 46.20938 | 20.53886 | 27774 ft | 382 kts | 291° |
| 2026-05-05 12:58 | 46.21908 | 20.50288 | 28164 ft | 384 kts | 291° |
| 2026-05-05 12:58 | 46.22883 | 20.46662 | 28526 ft | 386 kts | 291° |
| 2026-05-05 12:58 | 46.23849 | 20.43056 | 28871 ft | 388 kts | 291° |
| 2026-05-05 12:58 | 46.24827 | 20.39402 | 29230 ft | 390 kts | 291° |
| 2026-05-05 12:59 | 46.25798 | 20.35768 | 29588 ft | 391 kts | 291° |
| 2026-05-05 12:59 | 46.26797 | 20.32020 | 29932 ft | 393 kts | 290° |
| 2026-05-05 12:59 | 46.27784 | 20.28315 | 30278 ft | 394 kts | 290° |
| 2026-05-05 13:00 | 46.29765 | 20.20858 | 30917 ft | 398 kts | 290° |
| 2026-05-05 13:00 | 46.30756 | 20.17121 | 31217 ft | 400 kts | 290° |
| 2026-05-05 13:01 | 46.33781 | 20.05670 | 32093 ft | 406 kts | 290° |
| 2026-05-05 13:01 | 46.34786 | 20.01847 | 32368 ft | 407 kts | 290° |
| 2026-05-05 13:01 | 46.35803 | 19.97974 | 32640 ft | 409 kts | 290° |
| 2026-05-05 13:01 | 46.36813 | 19.94116 | 32921 ft | 410 kts | 290° |
| 2026-05-05 13:02 | 46.37839 | 19.90195 | 33208 ft | 411 kts | 290° |
| 2026-05-05 13:02 | 46.38898 | 19.86267 | 33471 ft | 413 kts | 292° |
| 2026-05-05 13:02 | 46.40082 | 19.82461 | 33720 ft | 415 kts | 295° |
| 2026-05-05 13:02 | 46.41405 | 19.78774 | 34023 ft | 415 kts | 298° |
| 2026-05-05 13:03 | 46.42876 | 19.75098 | 34368 ft | 414 kts | 299° |
| 2026-05-05 13:03 | 46.44342 | 19.71507 | 34661 ft | 414 kts | 300° |
| 2026-05-05 13:03 | 46.45828 | 19.67873 | 34879 ft | 415 kts | 300° |
| 2026-05-05 13:03 | 46.47312 | 19.64239 | 35084 ft | 416 kts | 300° |
| 2026-05-05 13:04 | 46.48777 | 19.60644 | 35271 ft | 417 kts | 300° |
| 2026-05-05 13:04 | 46.50251 | 19.57018 | 35457 ft | 419 kts | 300° |
| 2026-05-05 13:04 | 46.51764 | 19.53291 | 35646 ft | 420 kts | 300° |
| 2026-05-05 13:04 | 46.53250 | 19.49625 | 35832 ft | 420 kts | 300° |
| 2026-05-05 13:05 | 46.54736 | 19.45952 | 35943 ft | 422 kts | 300° |
| 2026-05-05 13:05 | 46.56230 | 19.42256 | 35945 ft | 422 kts | 300° |
| 2026-05-05 13:05 | 46.59225 | 19.34828 | 35950 ft | 422 kts | 299° |
| 2026-05-05 13:06 | 46.62185 | 19.27467 | 35948 ft | 422 kts | 298° |
| 2026-05-05 13:06 | 46.65149 | 19.20078 | 35944 ft | 422 kts | 298° |
| 2026-05-05 13:07 | 46.68119 | 19.12650 | 35941 ft | 422 kts | 298° |
| 2026-05-05 13:07 | 46.71081 | 19.05224 | 35942 ft | 422 kts | 298° |
| 2026-05-05 13:08 | 46.74067 | 18.97715 | 35940 ft | 423 kts | 298° |
| 2026-05-05 13:08 | 46.77004 | 18.90309 | 35939 ft | 424 kts | 298° |
| 2026-05-05 13:09 | 46.79961 | 18.82835 | 35935 ft | 424 kts | 298° |
| 2026-05-05 13:09 | 46.82908 | 18.75363 | 35939 ft | 424 kts | 298° |
| 2026-05-05 13:10 | 46.85836 | 18.67922 | 35939 ft | 424 kts | 298° |
| 2026-05-05 13:10 | 46.88795 | 18.60379 | 35937 ft | 423 kts | 298° |
| 2026-05-05 13:11 | 46.91725 | 18.52887 | 35932 ft | 423 kts | 298° |
| 2026-05-05 13:11 | 46.94665 | 18.45350 | 35927 ft | 423 kts | 298° |
| 2026-05-05 13:12 | 46.97583 | 18.37848 | 35930 ft | 423 kts | 298° |
| 2026-05-05 13:12 | 47.00488 | 18.30356 | 35927 ft | 423 kts | 298° |
| 2026-05-05 13:13 | 47.03400 | 18.22824 | 35931 ft | 423 kts | 298° |
| 2026-05-05 13:13 | 47.06284 | 18.15312 | 35931 ft | 423 kts | 297° |
| 2026-05-05 13:14 | 47.09104 | 18.07693 | 35933 ft | 423 kts | 297° |
| 2026-05-05 13:14 | 47.11901 | 18.00087 | 35931 ft | 422 kts | 297° |
| 2026-05-05 13:15 | 47.14683 | 17.92508 | 35933 ft | 423 kts | 297° |
| 2026-05-05 13:15 | 47.17481 | 17.84873 | 35939 ft | 423 kts | 297° |
| 2026-05-05 13:16 | 47.20260 | 17.77270 | 35933 ft | 423 kts | 297° |
| 2026-05-05 13:16 | 47.23062 | 17.69582 | 35933 ft | 422 kts | 297° |
| 2026-05-05 13:17 | 47.25847 | 17.61917 | 35932 ft | 422 kts | 297° |
| 2026-05-05 13:17 | 47.28609 | 17.54290 | 35920 ft | 423 kts | 297° |
| 2026-05-05 13:18 | 47.31374 | 17.46637 | 35913 ft | 423 kts | 297° |
| 2026-05-05 13:18 | 47.34133 | 17.38979 | 35911 ft | 423 kts | 297° |
| 2026-05-05 13:19 | 47.36888 | 17.31307 | 35907 ft | 422 kts | 296° |
| 2026-05-05 13:19 | 47.39624 | 17.23667 | 35895 ft | 422 kts | 296° |
| 2026-05-05 13:20 | 47.42368 | 17.15980 | 35887 ft | 423 kts | 296° |
| 2026-05-05 13:20 | 47.45117 | 17.08259 | 35887 ft | 423 kts | 296° |
| 2026-05-05 13:21 | 47.47877 | 17.00482 | 35869 ft | 423 kts | 296° |
| 2026-05-05 13:21 | 47.50611 | 16.92755 | 35861 ft | 423 kts | 296° |
| 2026-05-05 13:22 | 47.53325 | 16.85061 | 35859 ft | 423 kts | 296° |
| 2026-05-05 13:22 | 47.56066 | 16.77265 | 35857 ft | 422 kts | 296° |
| 2026-05-05 13:23 | 47.58715 | 16.69509 | 35844 ft | 422 kts | 295° |
| 2026-05-05 13:23 | 47.61304 | 16.61699 | 35839 ft | 422 kts | 295° |
| 2026-05-05 13:24 | 47.63900 | 16.53851 | 35839 ft | 421 kts | 295° |
| 2026-05-05 13:24 | 47.66485 | 16.46020 | 35840 ft | 422 kts | 295° |
| 2026-05-05 13:25 | 47.69079 | 16.38143 | 35839 ft | 421 kts | 295° |
| 2026-05-05 13:25 | 47.71648 | 16.30323 | 35832 ft | 421 kts | 294° |
| 2026-05-05 13:26 | 47.74195 | 16.22549 | 35832 ft | 420 kts | 294° |
| 2026-05-05 13:26 | 47.76751 | 16.14719 | 35840 ft | 420 kts | 294° |
| 2026-05-05 13:27 | 47.79307 | 16.06864 | 35836 ft | 421 kts | 294° |
| 2026-05-05 13:27 | 47.81849 | 15.99033 | 35842 ft | 421 kts | 294° |
| 2026-05-05 13:28 | 47.84403 | 15.91139 | 35841 ft | 421 kts | 294° |
| 2026-05-05 13:28 | 47.86952 | 15.83232 | 35836 ft | 421 kts | 294° |
| 2026-05-05 13:29 | 47.89460 | 15.75428 | 35829 ft | 420 kts | 294° |
| 2026-05-05 13:29 | 47.91983 | 15.67559 | 35827 ft | 420 kts | 294° |
| 2026-05-05 13:30 | 47.94496 | 15.59695 | 35829 ft | 419 kts | 294° |
| 2026-05-05 13:30 | 47.96998 | 15.51840 | 35833 ft | 419 kts | 294° |
| 2026-05-05 13:31 | 47.99497 | 15.43970 | 35836 ft | 419 kts | 294° |
| 2026-05-05 13:31 | 48.01979 | 15.36127 | 35833 ft | 420 kts | 294° |
| 2026-05-05 13:32 | 48.04472 | 15.28229 | 35834 ft | 419 kts | 293° |
| 2026-05-05 13:32 | 48.06953 | 15.20342 | 35824 ft | 419 kts | 293° |
| 2026-05-05 13:33 | 48.09437 | 15.12415 | 35810 ft | 418 kts | 293° |
| 2026-05-05 13:33 | 48.11895 | 15.04553 | 35797 ft | 418 kts | 293° |
| 2026-05-05 13:34 | 48.14359 | 14.96648 | 35790 ft | 418 kts | 293° |
| 2026-05-05 13:34 | 48.16798 | 14.88793 | 35780 ft | 418 kts | 293° |
| 2026-05-05 13:35 | 48.19259 | 14.80848 | 35782 ft | 419 kts | 293° |
| 2026-05-05 13:35 | 48.21705 | 14.72924 | 35778 ft | 418 kts | 293° |
| 2026-05-05 13:36 | 48.24136 | 14.65020 | 35779 ft | 419 kts | 293° |
| 2026-05-05 13:36 | 48.26582 | 14.57045 | 35773 ft | 419 kts | 293° |
| 2026-05-05 13:37 | 48.29010 | 14.49100 | 35772 ft | 418 kts | 293° |
| 2026-05-05 13:37 | 48.31440 | 14.41128 | 35774 ft | 418 kts | 293° |
| 2026-05-05 13:38 | 48.33852 | 14.33187 | 35780 ft | 418 kts | 292° |
| 2026-05-05 13:38 | 48.36262 | 14.25229 | 35792 ft | 418 kts | 292° |
| 2026-05-05 13:39 | 48.38658 | 14.17291 | 35797 ft | 418 kts | 291° |
| 2026-05-05 13:39 | 48.41037 | 14.09377 | 35794 ft | 417 kts | 292° |
| 2026-05-05 13:40 | 48.43448 | 14.01334 | 35795 ft | 418 kts | 292° |
| 2026-05-05 13:40 | 48.45831 | 13.93367 | 35792 ft | 418 kts | 291° |
| 2026-05-05 13:41 | 48.48219 | 13.85347 | 35793 ft | 419 kts | 292° |
| 2026-05-05 13:41 | 48.50601 | 13.77324 | 35788 ft | 419 kts | 291° |
| 2026-05-05 13:42 | 48.52974 | 13.69299 | 35787 ft | 418 kts | 291° |
| 2026-05-05 13:42 | 48.55340 | 13.61271 | 35788 ft | 419 kts | 291° |
| 2026-05-05 13:43 | 48.57693 | 13.53261 | 35784 ft | 418 kts | 291° |
| 2026-05-05 13:43 | 48.60046 | 13.45213 | 35781 ft | 419 kts | 291° |
| 2026-05-05 13:44 | 48.62383 | 13.37169 | 35779 ft | 418 kts | 291° |
| 2026-05-05 13:44 | 48.64702 | 13.29146 | 35780 ft | 418 kts | 290° |
| 2026-05-05 13:45 | 48.67051 | 13.20991 | 35779 ft | 418 kts | 290° |
| 2026-05-05 13:45 | 48.69376 | 13.12894 | 35781 ft | 419 kts | 290° |
| 2026-05-05 13:46 | 48.71688 | 13.04820 | 35769 ft | 419 kts | 290° |
| 2026-05-05 13:46 | 48.73990 | 12.96745 | 35767 ft | 419 kts | 290° |
| 2026-05-05 13:47 | 48.76302 | 12.88613 | 35772 ft | 419 kts | 290° |
| 2026-05-05 13:47 | 48.78603 | 12.80492 | 35779 ft | 420 kts | 290° |
| 2026-05-05 13:48 | 48.80924 | 12.72268 | 35782 ft | 420 kts | 290° |
| 2026-05-05 13:48 | 48.83214 | 12.64126 | 35789 ft | 420 kts | 290° |
| 2026-05-05 13:49 | 48.85501 | 12.55965 | 35791 ft | 421 kts | 290° |
| 2026-05-05 13:49 | 48.87807 | 12.47717 | 35794 ft | 421 kts | 290° |
| 2026-05-05 13:50 | 48.90091 | 12.39516 | 35790 ft | 421 kts | 290° |
| 2026-05-05 13:50 | 48.92368 | 12.31305 | 35787 ft | 422 kts | 289° |
| 2026-05-05 13:51 | 48.94621 | 12.23156 | 35792 ft | 422 kts | 289° |
| 2026-05-05 13:51 | 48.96898 | 12.14892 | 35786 ft | 422 kts | 289° |
| 2026-05-05 13:52 | 48.99172 | 12.06613 | 35787 ft | 423 kts | 289° |
| 2026-05-05 13:52 | 49.01459 | 11.98254 | 35797 ft | 424 kts | 289° |
| 2026-05-05 13:53 | 49.03705 | 11.90013 | 35800 ft | 424 kts | 289° |
| 2026-05-05 13:53 | 49.05963 | 11.81704 | 35797 ft | 424 kts | 289° |
| 2026-05-05 13:54 | 49.08219 | 11.73375 | 35794 ft | 424 kts | 289° |
| 2026-05-05 13:54 | 49.10464 | 11.65047 | 35793 ft | 424 kts | 289° |
| 2026-05-05 13:55 | 49.12707 | 11.56704 | 35802 ft | 425 kts | 288° |
| 2026-05-05 13:55 | 49.14938 | 11.48374 | 35807 ft | 425 kts | 288° |
| 2026-05-05 13:56 | 49.17175 | 11.39986 | 35810 ft | 425 kts | 288° |
| 2026-05-05 13:56 | 49.19411 | 11.31578 | 35807 ft | 426 kts | 288° |
| 2026-05-05 13:57 | 49.21593 | 11.23341 | 35802 ft | 427 kts | 287° |
| 2026-05-05 13:57 | 49.23802 | 11.14972 | 35800 ft | 427 kts | 287° |
| 2026-05-05 13:58 | 49.25992 | 11.06637 | 35800 ft | 428 kts | 287° |
| 2026-05-05 13:58 | 49.28193 | 10.98231 | 35805 ft | 429 kts | 287° |
| 2026-05-05 13:59 | 49.31533 | 10.85417 | 35814 ft | 430 kts | 287° |
| 2026-05-05 14:00 | 49.35497 | 10.73007 | 35823 ft | 435 kts | 297° |
| 2026-05-05 14:00 | 49.38900 | 10.65256 | 35828 ft | 438 kts | 301° |
| 2026-05-05 14:01 | 49.42489 | 10.57671 | 35826 ft | 438 kts | 302° |
| 2026-05-05 14:01 | 49.46087 | 10.50039 | 35824 ft | 438 kts | 302° |
| 2026-05-05 14:02 | 49.49671 | 10.42399 | 35823 ft | 439 kts | 301° |
| 2026-05-05 14:02 | 49.53241 | 10.34753 | 35833 ft | 440 kts | 301° |
| 2026-05-05 14:03 | 49.56784 | 10.27143 | 35833 ft | 440 kts | 301° |
| 2026-05-05 14:03 | 49.60329 | 10.19505 | 35831 ft | 440 kts | 301° |
| 2026-05-05 14:04 | 49.63864 | 10.11864 | 35829 ft | 440 kts | 301° |
| 2026-05-05 14:04 | 49.67421 | 10.04152 | 35589 ft | 441 kts | 300° |
| 2026-05-05 14:05 | 49.69192 | 10.00308 | 35291 ft | 439 kts | 300° |
| 2026-05-05 14:05 | 49.70864 | 9.96413 | 34851 ft | 435 kts | 296° |
| 2026-05-05 14:05 | 49.72377 | 9.92376 | 34209 ft | 432 kts | 293° |
| 2026-05-05 14:05 | 49.73711 | 9.88245 | 33569 ft | 430 kts | 290° |
| 2026-05-05 14:06 | 49.74954 | 9.84064 | 32900 ft | 429 kts | 289° |
| 2026-05-05 14:06 | 49.76195 | 9.79821 | 32268 ft | 428 kts | 290° |
| 2026-05-05 14:06 | 49.77402 | 9.75707 | 31840 ft | 424 kts | 290° |
| 2026-05-05 14:06 | 49.78621 | 9.71565 | 31391 ft | 420 kts | 290° |
| 2026-05-05 14:07 | 49.79831 | 9.67453 | 30938 ft | 416 kts | 290° |
| 2026-05-05 14:07 | 49.81004 | 9.63434 | 30487 ft | 413 kts | 289° |
| 2026-05-05 14:07 | 49.82059 | 9.59308 | 30033 ft | 407 kts | 285° |
| 2026-05-05 14:07 | 49.82922 | 9.55178 | 29594 ft | 402 kts | 282° |
| 2026-05-05 14:08 | 49.83624 | 9.51073 | 29161 ft | 397 kts | 280° |
| 2026-05-05 14:08 | 49.84291 | 9.46933 | 28724 ft | 394 kts | 280° |
| 2026-05-05 14:08 | 49.84944 | 9.42838 | 28284 ft | 391 kts | 280° |
| 2026-05-05 14:08 | 49.85606 | 9.38720 | 27839 ft | 388 kts | 280° |
| 2026-05-05 14:09 | 49.86252 | 9.34869 | 27427 ft | 385 kts | 282° |
| 2026-05-05 14:09 | 49.87077 | 9.30747 | 26986 ft | 383 kts | 283° |
| 2026-05-05 14:09 | 49.87878 | 9.26907 | 26567 ft | 380 kts | 284° |
| 2026-05-05 14:09 | 49.88682 | 9.23066 | 26137 ft | 377 kts | 284° |
| 2026-05-05 14:10 | 49.89482 | 9.19235 | 25686 ft | 375 kts | 284° |
| 2026-05-05 14:10 | 49.90276 | 9.15409 | 25243 ft | 372 kts | 284° |
| 2026-05-05 14:10 | 49.91064 | 9.11604 | 24814 ft | 369 kts | 284° |
| 2026-05-05 14:10 | 49.91787 | 9.07853 | 24387 ft | 365 kts | 279° |
| 2026-05-05 14:11 | 49.92239 | 9.03984 | 23959 ft | 359 kts | 272° |
| 2026-05-05 14:11 | 49.92377 | 9.00154 | 23541 ft | 354 kts | 267° |
| 2026-05-05 14:11 | 49.92365 | 8.96355 | 23129 ft | 352 kts | 266° |
| 2026-05-05 14:11 | 49.92327 | 8.92568 | 22702 ft | 350 kts | 265° |
| 2026-05-05 14:12 | 49.92190 | 8.88815 | 22269 ft | 347 kts | 261° |
| 2026-05-05 14:12 | 49.91867 | 8.85109 | 21845 ft | 344 kts | 256° |
| 2026-05-05 14:12 | 49.91395 | 8.81536 | 21443 ft | 342 kts | 255° |
| 2026-05-05 14:12 | 49.90882 | 8.77894 | 21005 ft | 342 kts | 255° |
| 2026-05-05 14:13 | 49.90373 | 8.74304 | 20557 ft | 341 kts | 255° |
| 2026-05-05 14:13 | 49.89870 | 8.70746 | 20133 ft | 340 kts | 255° |
| 2026-05-05 14:13 | 49.89361 | 8.67137 | 19713 ft | 340 kts | 255° |
| 2026-05-05 14:13 | 49.88861 | 8.63585 | 19276 ft | 339 kts | 255° |
| 2026-05-05 14:14 | 49.88353 | 8.60002 | 18859 ft | 338 kts | 255° |
| 2026-05-05 14:14 | 49.87852 | 8.56456 | 18444 ft | 337 kts | 255° |
| 2026-05-05 14:14 | 49.87350 | 8.52910 | 18025 ft | 337 kts | 255° |
| 2026-05-05 14:14 | 49.86950 | 8.49353 | 17585 ft | 339 kts | 264° |
| 2026-05-05 14:15 | 49.87009 | 8.45683 | 17166 ft | 341 kts | 277° |
| 2026-05-05 14:15 | 49.87478 | 8.42086 | 16827 ft | 340 kts | 281° |
| 2026-05-05 14:15 | 49.88038 | 8.38515 | 16381 ft | 340 kts | 282° |
| 2026-05-05 14:15 | 49.88601 | 8.34986 | 16009 ft | 339 kts | 281° |
| 2026-05-05 14:16 | 49.89154 | 8.31470 | 15549 ft | 340 kts | 281° |
| 2026-05-05 14:16 | 49.89702 | 8.27938 | 15140 ft | 339 kts | 281° |
| 2026-05-05 14:16 | 49.90245 | 8.24412 | 14707 ft | 339 kts | 280° |
| 2026-05-05 14:16 | 49.90791 | 8.20820 | 14316 ft | 339 kts | 281° |
| 2026-05-05 14:17 | 49.91323 | 8.17290 | 13889 ft | 338 kts | 281° |
| 2026-05-05 14:17 | 49.91856 | 8.13765 | 13490 ft | 337 kts | 280° |
| 2026-05-05 14:17 | 49.92389 | 8.10239 | 13052 ft | 337 kts | 280° |
| 2026-05-05 14:17 | 49.92921 | 8.06684 | 12613 ft | 336 kts | 281° |
| 2026-05-05 14:18 | 49.93447 | 8.03165 | 12168 ft | 335 kts | 282° |
| 2026-05-05 14:18 | 49.93970 | 7.99673 | 11762 ft | 333 kts | 280° |
| 2026-05-05 14:18 | 49.94500 | 7.96167 | 11317 ft | 332 kts | 282° |
| 2026-05-05 14:18 | 49.95164 | 7.92771 | 10974 ft | 329 kts | 291° |
| 2026-05-05 14:19 | 49.96340 | 7.89721 | 10562 ft | 326 kts | 305° |
| 2026-05-05 14:19 | 49.97738 | 7.87001 | 9782 ft | 326 kts | 308° |
| 2026-05-05 14:19 | 49.99180 | 7.84271 | 8943 ft | 322 kts | 307° |
| 2026-05-05 14:19 | 50.00563 | 7.81574 | 8505 ft | 319 kts | 306° |
| 2026-05-05 14:20 | 50.01913 | 7.78862 | 8078 ft | 317 kts | 306° |
| 2026-05-05 14:20 | 50.03226 | 7.76168 | 7425 ft | 310 kts | 306° |
| 2026-05-05 14:20 | 50.04509 | 7.73510 | 6531 ft | 308 kts | 305° |
| 2026-05-05 14:20 | 50.05779 | 7.70861 | 5734 ft | 302 kts | 305° |
| 2026-05-05 14:21 | 50.07014 | 7.68280 | 5208 ft | 296 kts | 306° |
| 2026-05-05 14:21 | 50.08227 | 7.65734 | 4985 ft | 286 kts | 305° |
| 2026-05-05 14:21 | 50.09373 | 7.63330 | 4980 ft | 270 kts | 305° |
| 2026-05-05 14:21 | 50.10460 | 7.61054 | 4978 ft | 256 kts | 304° |
| 2026-05-05 14:22 | 50.11498 | 7.58868 | 4978 ft | 241 kts | 303° |
| 2026-05-05 14:22 | 50.12414 | 7.56745 | 4974 ft | 228 kts | 301° |
| 2026-05-05 14:22 | 50.13244 | 7.54742 | 4972 ft | 216 kts | 301° |
| 2026-05-05 14:22 | 50.14039 | 7.52811 | 4965 ft | 204 kts | 301° |
| 2026-05-05 14:23 | 50.14784 | 7.50998 | 4969 ft | 199 kts | 300° |
| 2026-05-05 14:23 | 50.15345 | 7.49049 | 4956 ft | 195 kts | 272° |
| 2026-05-05 14:23 | 50.15064 | 7.47020 | 4971 ft | 193 kts | 235° |
| 2026-05-05 14:23 | 50.14138 | 7.45520 | 4992 ft | 193 kts | 218° |
| 2026-05-05 14:24 | 50.13042 | 7.44310 | 4996 ft | 192 kts | 214° |
| 2026-05-05 14:24 | 50.11927 | 7.43182 | 4994 ft | 192 kts | 213° |
| 2026-05-05 14:24 | 50.10778 | 7.42049 | 4960 ft | 193 kts | 213° |
| 2026-05-05 14:24 | 50.09649 | 7.40942 | 4748 ft | 193 kts | 213° |
| 2026-05-05 14:25 | 50.08503 | 7.39820 | 4512 ft | 192 kts | 213° |
| 2026-05-05 14:25 | 50.07398 | 7.38735 | 4323 ft | 186 kts | 213° |
| 2026-05-05 14:25 | 50.06301 | 7.37657 | 4046 ft | 184 kts | 214° |
| 2026-05-05 14:25 | 50.05219 | 7.36593 | 3779 ft | 183 kts | 214° |
| 2026-05-05 14:26 | 50.04150 | 7.35541 | 3521 ft | 180 kts | 214° |
| 2026-05-05 14:26 | 50.03138 | 7.34544 | 3280 ft | 174 kts | 213° |
| 2026-05-05 14:26 | 50.02171 | 7.33592 | 3073 ft | 160 kts | 213° |
| 2026-05-05 14:26 | 50.01258 | 7.32692 | 2852 ft | 149 kts | 213° |
| 2026-05-05 14:27 | 50.00403 | 7.31850 | 2634 ft | 140 kts | 212° |
| 2026-05-05 14:27 | 49.99594 | 7.31058 | 2449 ft | 135 kts | 212° |
| 2026-05-05 14:27 | 49.98803 | 7.30271 | 2288 ft | 135 kts | 212° |
| 2026-05-05 14:27 | 49.97992 | 7.29472 | 2127 ft | 135 kts | 211° |
| 2026-05-05 14:28 | 49.97205 | 7.28694 | 1950 ft | 135 kts | 211° |
| 2026-05-05 14:28 | 49.96406 | 7.27906 | 1770 ft | 136 kts | 211° |
| 2026-05-05 14:28 | 49.95605 | 7.27118 | 1608 ft | 135 kts | 211° |
| 2026-05-05 14:28 | 49.94900 | 7.26423 | 1628 ft | 97 kts | 212° |
| 2026-05-05 14:29 | 49.94471 | 7.25998 | 1640 ft | 47 kts | 212° |
| 2026-05-05 14:29 | 49.94250 | 7.25781 | 1643 ft | 32 kts | 212° |
| 2026-05-05 14:29 | 49.94072 | 7.25605 | 1645 ft | 24 kts | 211° |
| 2026-05-05 14:29 | 49.93966 | 7.25522 | 1645 ft | 11 kts | 174° |
| 2026-05-05 14:30 | 49.93909 | 7.25605 | 1645 ft | 11 kts | 122° |
| 2026-05-05 14:30 | 49.93869 | 7.25702 | 1645 ft | 10 kts | 123° |
| 2026-05-05 14:30 | 49.93832 | 7.25792 | 1645 ft | 9 kts | 121° |
| 2026-05-05 14:30 | 49.93830 | 7.25889 | 1644 ft | 10 kts | 45° |
| 2026-05-05 14:31 | 49.93890 | 7.25952 | 1644 ft | 10 kts | 33° |
| 2026-05-05 14:31 | 49.93955 | 7.26019 | 1643 ft | 11 kts | 33° |
| 2026-05-05 14:31 | 49.94026 | 7.26092 | 1641 ft | 12 kts | 33° |
| 2026-05-05 14:31 | 49.94100 | 7.26167 | 1640 ft | 13 kts | 33° |
| 2026-05-05 14:32 | 49.94179 | 7.26249 | 1639 ft | 13 kts | 33° |
| 2026-05-05 14:32 | 49.94262 | 7.26332 | 1637 ft | 14 kts | 33° |
| 2026-05-05 14:32 | 49.94350 | 7.26424 | 1635 ft | 15 kts | 33° |
| 2026-05-05 14:32 | 49.94444 | 7.26519 | 1632 ft | 16 kts | 33° |
| 2026-05-05 14:33 | 49.94541 | 7.26618 | 1629 ft | 16 kts | 32° |
| 2026-05-05 14:33 | 49.94624 | 7.26641 | 1627 ft | 10 kts | 3° |
| 2026-05-05 14:33 | 49.94693 | 7.26698 | 1625 ft | 11 kts | 33° |
| 2026-05-05 14:33 | 49.94723 | 7.26745 | 1624 ft | 5 kts | 91° |
| 2026-05-05 14:34 | 49.94702 | 7.26804 | 1623 ft | 6 kts | 121° |
| 2026-05-05 14:34 | 49.94684 | 7.26839 | 1623 ft | 3 kts | 164° |
| 2026-05-05 14:34 | 49.94662 | 7.26825 | 1623 ft | 2 kts | 216° |
| 2026-05-05 14:34 | 49.94651 | 7.26815 | 1623 ft | 0 kts | 211° |
| 2026-05-05 14:35 | 49.94649 | 7.26812 | 1623 ft | 1 kts | 212° |